createdAt,value
2018-11-10T00:00:42.760Z,95.30
2018-11-10T00:03:47.198Z,95.09
2018-11-10T00:06:51.099Z,95.11
2018-11-10T00:09:54.998Z,95.51
2018-11-10T00:12:58.899Z,95.61
2018-11-10T00:16:03.134Z,95.48
2018-11-10T00:19:07.371Z,95.10
2018-11-10T00:22:11.455Z,95.39
2018-11-10T00:25:16.618Z,95.86
2018-11-10T00:28:21.048Z,95.43
2018-11-10T00:31:25.353Z,95.48
2018-11-10T00:34:29.289Z,95.48
2018-11-10T00:37:33.651Z,95.53
2018-11-10T00:40:37.905Z,95.69
2018-11-10T00:43:41.803Z,95.57
2018-11-10T00:46:46.028Z,95.75
2018-11-10T00:49:50.250Z,95.33
2018-11-10T00:52:54.473Z,95.07
2018-11-10T00:55:58.719Z,95.73
2018-11-10T00:59:02.989Z,95.72
2018-11-10T01:02:06.922Z,95.61
2018-11-10T01:05:11.601Z,95.92
2018-11-10T01:08:15.683Z,95.92
2018-11-10T01:11:19.807Z,95.30
2018-11-10T01:14:23.701Z,95.75
2018-11-10T01:17:27.586Z,95.76
2018-11-10T01:20:31.861Z,95.98
2018-11-10T01:23:35.753Z,95.47
2018-11-10T01:26:39.842Z,95.40
2018-11-10T01:29:43.805Z,95.58
2018-11-10T01:32:47.721Z,95.94
2018-11-10T01:35:51.653Z,95.80
2018-11-10T01:38:55.582Z,95.61
2018-11-10T01:41:59.530Z,95.41
2018-11-10T01:45:03.875Z,95.17
2018-11-10T01:48:07.977Z,95.54
2018-11-10T01:51:12.077Z,95.52
2018-11-10T01:54:15.990Z,95.56
2018-11-10T01:57:19.941Z,95.73
2018-11-10T02:00:24.197Z,95.14
2018-11-10T02:03:28.876Z,95.64
2018-11-10T02:06:33.307Z,95.93
2018-11-10T02:09:37.433Z,95.30
2018-11-10T02:12:41.433Z,95.81
2018-11-10T02:15:45.526Z,95.97
2018-11-10T02:18:49.688Z,95.41
2018-11-10T02:21:54.406Z,95.40
2018-11-10T02:24:58.327Z,95.62
2018-11-10T02:28:02.817Z,95.98
2018-11-10T02:31:06.722Z,95.50
2018-11-10T02:34:10.672Z,95.58
2018-11-10T02:37:15.471Z,95.55
2018-11-10T02:40:19.771Z,95.77
2018-11-10T02:43:23.710Z,95.46
2018-11-10T02:46:27.631Z,95.61
2018-11-10T02:49:31.565Z,95.67
2018-11-10T02:52:35.810Z,95.63
2018-11-10T02:55:39.890Z,94.92
2018-11-10T02:58:43.834Z,95.21
2018-11-10T03:01:47.771Z,94.49
2018-11-10T03:04:51.705Z,95.82
2018-11-10T03:07:55.628Z,94.97
2018-11-10T03:10:59.538Z,95.65
2018-11-10T03:14:04.003Z,95.60
2018-11-10T03:17:07.921Z,95.55
2018-11-10T03:20:14.374Z,95.19
2018-11-10T03:23:18.309Z,95.65
2018-11-10T03:26:22.242Z,96.14
2018-11-10T03:29:26.246Z,95.64
2018-11-10T03:32:30.207Z,95.40
2018-11-10T03:35:34.125Z,96.17
2018-11-10T03:38:38.054Z,95.63
2018-11-10T03:41:41.969Z,95.72
2018-11-10T03:44:45.893Z,95.64
2018-11-10T03:47:49.842Z,96.17
2018-11-10T03:50:53.957Z,95.55
2018-11-10T03:53:57.887Z,96.28
2018-11-10T03:57:02.145Z,96.09
2018-11-10T04:00:09.743Z,96.36
2018-11-10T04:03:13.923Z,95.93
2018-11-10T04:06:18.225Z,96.04
2018-11-10T04:09:22.448Z,96.05
2018-11-10T04:12:28.902Z,95.45
2018-11-10T04:15:32.806Z,95.93
2018-11-10T04:18:37.005Z,95.74
2018-11-10T04:21:40.932Z,96.08
2018-11-10T04:24:44.939Z,96.23
2018-11-10T04:27:48.853Z,96.16
2018-11-10T04:30:52.761Z,95.65
2018-11-10T04:33:56.689Z,95.93
2018-11-10T04:37:00.601Z,96.32
2018-11-10T04:40:04.733Z,96.49
2018-11-10T04:43:08.641Z,96.19
2018-11-10T04:46:12.569Z,96.05
2018-11-10T04:49:16.482Z,95.74
2018-11-10T04:52:20.396Z,95.79
2018-11-10T04:55:24.505Z,95.74
2018-11-10T04:58:28.418Z,96.00
2018-11-10T05:01:32.357Z,96.23
2018-11-10T05:04:36.438Z,96.07
2018-11-10T05:07:40.434Z,96.32
2018-11-10T05:10:44.459Z,96.35
2018-11-10T05:13:48.358Z,95.93
2018-11-10T05:16:52.269Z,96.35
2018-11-10T05:19:56.193Z,96.08
2018-11-10T05:23:00.419Z,96.04
2018-11-10T05:26:04.517Z,96.01
2018-11-10T05:29:08.829Z,95.73
2018-11-10T05:32:12.790Z,95.79
2018-11-10T05:35:16.698Z,95.71
2018-11-10T05:38:20.813Z,95.81
2018-11-10T05:41:25.133Z,96.13
2018-11-10T05:44:29.118Z,95.85
2018-11-10T05:47:33.024Z,95.50
2018-11-10T05:50:36.937Z,95.73
2018-11-10T05:53:40.854Z,96.13
2018-11-10T05:56:44.769Z,96.29
2018-11-10T05:59:48.693Z,96.17
2018-11-10T06:02:52.593Z,95.38
2018-11-10T06:05:56.738Z,96.16
2018-11-10T06:09:00.651Z,95.95
2018-11-10T06:12:05.215Z,96.53
2018-11-10T06:15:10.001Z,95.75
2018-11-10T06:18:13.899Z,96.02
2018-11-10T06:21:17.805Z,95.83
2018-11-10T06:24:21.783Z,95.44
2018-11-10T06:27:25.713Z,96.05
2018-11-10T06:30:29.609Z,95.86
2018-11-10T06:33:33.519Z,95.72
2018-11-10T06:36:37.423Z,95.86
2018-11-10T06:39:41.353Z,95.79
2018-11-10T06:42:45.341Z,95.74
2018-11-10T06:45:49.590Z,96.45
2018-11-10T06:48:53.541Z,95.82
2018-11-10T06:51:57.471Z,95.42
2018-11-10T06:55:01.378Z,96.43
2018-11-10T06:58:05.633Z,96.58
2018-11-10T07:01:09.538Z,95.93
2018-11-10T07:04:13.479Z,96.42
2018-11-10T07:07:17.416Z,96.56
2018-11-10T07:10:21.754Z,96.50
2018-11-10T07:13:25.674Z,96.01
2018-11-10T07:16:29.584Z,96.24
2018-11-10T07:19:33.562Z,96.55
2018-11-10T07:22:37.538Z,96.75
2018-11-10T07:25:41.474Z,95.37
2018-11-10T07:28:45.409Z,96.77
2018-11-10T07:31:49.351Z,96.29
2018-11-10T07:34:53.542Z,96.63
2018-11-10T07:37:57.438Z,96.66
2018-11-10T07:41:01.375Z,95.81
2018-11-10T07:44:05.804Z,96.16
2018-11-10T07:47:09.719Z,96.16
2018-11-10T07:50:13.676Z,96.10
2018-11-10T07:53:17.584Z,96.03
2018-11-10T07:56:21.504Z,96.13
2018-11-10T07:59:25.395Z,95.38
2018-11-10T08:02:29.308Z,95.91
2018-11-10T08:05:33.626Z,95.99
2018-11-10T08:08:37.529Z,96.38
2018-11-10T08:11:41.520Z,95.97
2018-11-10T08:14:45.896Z,96.14
2018-11-10T08:17:49.812Z,95.67
2018-11-10T08:20:53.778Z,95.15
2018-11-10T08:23:57.918Z,96.32
2018-11-10T08:27:01.839Z,96.00
2018-11-10T08:30:07.292Z,95.89
2018-11-10T08:33:11.201Z,96.29
2018-11-10T08:36:15.133Z,96.28
2018-11-10T08:39:19.102Z,95.85
2018-11-10T08:42:23.147Z,96.06
2018-11-10T08:45:27.229Z,96.61
2018-11-10T08:48:31.124Z,96.21
2018-11-10T08:51:35.042Z,95.98
2018-11-10T08:54:39.296Z,96.83
2018-11-10T08:57:44.038Z,96.70
2018-11-10T09:00:48.018Z,96.43
2018-11-10T09:03:51.931Z,96.96
2018-11-10T09:06:55.851Z,96.60
2018-11-10T09:09:59.795Z,96.87
2018-11-10T09:13:03.863Z,97.10
2018-11-10T09:16:07.963Z,96.83
2018-11-10T09:19:11.875Z,96.72
2018-11-10T09:22:16.327Z,96.55
2018-11-10T09:25:20.235Z,96.37
2018-11-10T09:28:24.134Z,96.22
2018-11-10T09:31:42.046Z,96.81
2018-11-10T09:34:49.997Z,96.75
2018-11-10T09:37:53.910Z,96.58
2018-11-10T09:40:57.819Z,97.20
2018-11-10T09:44:01.722Z,97.08
2018-11-10T09:47:06.084Z,96.56
2018-11-10T09:50:15.214Z,96.60
2018-11-10T09:53:19.125Z,96.60
2018-11-10T09:56:23.349Z,96.23
2018-11-10T09:59:27.241Z,96.55
2018-11-10T10:02:31.562Z,97.01
2018-11-10T10:05:35.257Z,96.46
2018-11-10T10:08:39.470Z,97.06
2018-11-10T10:11:43.504Z,96.67
2018-11-10T10:14:47.394Z,96.97
2018-11-10T10:17:51.295Z,96.20
2018-11-10T10:20:55.186Z,96.83
2018-11-10T10:23:59.103Z,96.92
2018-11-10T10:27:03.375Z,97.03
2018-11-10T10:30:10.662Z,96.72
2018-11-10T10:33:14.929Z,96.93
2018-11-10T10:36:18.862Z,96.53
2018-11-10T10:39:22.947Z,97.06
2018-11-10T10:42:26.856Z,96.88
2018-11-10T10:45:31.074Z,96.74
2018-11-10T10:48:35.072Z,96.06
2018-11-10T10:51:39.434Z,96.83
2018-11-10T10:54:43.322Z,95.91
2018-11-10T10:57:48.742Z,96.36
2018-11-10T11:00:58.054Z,96.17
2018-11-10T11:04:07.302Z,96.48
2018-11-10T11:07:11.219Z,96.84
2018-11-10T11:10:15.126Z,96.39
2018-11-10T11:13:19.016Z,96.96
2018-11-10T11:16:23.097Z,96.97
2018-11-10T11:19:27.002Z,96.10
2018-11-10T11:22:30.916Z,96.22
2018-11-10T11:25:34.997Z,96.16
2018-11-10T11:28:39.405Z,96.43
2018-11-10T11:31:43.637Z,96.59
2018-11-10T11:34:47.541Z,96.55
2018-11-10T11:37:51.464Z,96.26
2018-11-10T11:40:55.563Z,95.90
2018-11-10T11:43:59.666Z,96.42
2018-11-10T11:47:03.871Z,96.50
2018-11-10T11:50:19.922Z,96.08
2018-11-10T11:53:23.786Z,96.66
2018-11-10T11:56:27.649Z,95.91
2018-11-10T11:59:31.512Z,96.40
2018-11-10T12:02:35.379Z,96.05
2018-11-10T12:05:39.793Z,95.84
2018-11-10T12:08:43.663Z,96.46
2018-11-10T12:11:47.516Z,96.23
2018-11-10T12:14:51.596Z,95.92
2018-11-10T12:17:55.470Z,95.37
2018-11-10T12:20:59.387Z,95.89
2018-11-10T12:24:03.413Z,95.83
2018-11-10T12:27:07.442Z,96.64
2018-11-10T12:30:11.982Z,96.56
2018-11-10T12:33:15.907Z,95.94
2018-11-10T12:36:20.122Z,95.69
2018-11-10T12:39:23.981Z,95.77
2018-11-10T12:42:28.056Z,95.16
2018-11-10T12:45:31.918Z,96.09
2018-11-10T12:48:35.778Z,95.30
2018-11-10T12:51:39.821Z,94.92
2018-11-10T12:54:43.738Z,96.01
2018-11-10T12:57:47.782Z,95.57
2018-11-10T13:00:51.661Z,95.20
2018-11-10T13:03:55.646Z,94.81
2018-11-10T13:06:59.745Z,95.33
2018-11-10T13:10:03.829Z,95.45
2018-11-10T13:13:07.688Z,94.81
2018-11-10T13:16:11.554Z,95.56
2018-11-10T13:19:15.437Z,94.85
2018-11-10T13:22:19.353Z,95.21
2018-11-10T13:25:23.545Z,95.28
2018-11-10T13:28:27.409Z,95.41
2018-11-10T13:31:31.331Z,95.34
2018-11-10T13:34:35.355Z,95.27
2018-11-10T13:37:39.226Z,95.28
2018-11-10T13:40:43.095Z,95.22
2018-11-10T13:43:47.478Z,95.04
2018-11-10T13:46:51.545Z,95.21
2018-11-10T13:49:55.630Z,95.10
2018-11-10T13:53:00.510Z,95.21
2018-11-10T13:56:04.091Z,95.15
2018-11-10T13:59:08.530Z,94.31
2018-11-10T14:02:18.922Z,94.49
2018-11-10T14:05:22.823Z,94.61
2018-11-10T14:08:26.893Z,95.42
2018-11-10T14:11:30.748Z,94.99
2018-11-10T14:14:34.612Z,95.51
2018-11-10T14:17:38.963Z,95.07
2018-11-10T14:20:43.044Z,94.85
2018-11-10T14:23:47.060Z,95.59
2018-11-10T14:26:51.253Z,95.18
2018-11-10T14:29:55.457Z,94.82
2018-11-10T14:32:59.649Z,94.34
2018-11-10T14:36:03.863Z,94.76
2018-11-10T14:39:09.492Z,95.15
2018-11-10T14:42:13.541Z,95.21
2018-11-10T14:45:18.688Z,95.12
2018-11-10T14:48:22.553Z,94.62
2018-11-10T14:51:27.310Z,95.43
2018-11-10T14:54:31.177Z,95.02
2018-11-10T14:57:35.532Z,95.28
2018-11-10T15:00:39.389Z,94.52
2018-11-10T15:03:43.248Z,95.22
2018-11-10T15:06:47.460Z,95.04
2018-11-10T15:09:51.349Z,95.17
2018-11-10T15:12:55.215Z,95.06
2018-11-10T15:15:59.449Z,94.81
2018-11-10T15:19:03.733Z,94.54
2018-11-10T15:22:07.894Z,94.68
2018-11-10T15:25:14.665Z,94.70
2018-11-10T15:28:18.706Z,94.90
2018-11-10T15:31:22.573Z,94.27
2018-11-10T15:34:26.434Z,94.71
2018-11-10T15:37:30.341Z,94.43
2018-11-10T15:40:34.427Z,93.93
2018-11-10T15:43:38.372Z,94.61
2018-11-10T15:46:42.251Z,94.29
2018-11-10T15:49:46.102Z,94.18
2018-11-10T15:52:50.182Z,94.53
2018-11-10T15:55:54.229Z,94.90
2018-11-10T15:59:04.874Z,94.17
2018-11-10T16:02:08.777Z,94.52
2018-11-10T16:05:13.484Z,94.16
2018-11-10T16:08:17.526Z,94.67
2018-11-10T16:11:21.766Z,93.79
2018-11-10T16:14:25.629Z,94.36
2018-11-10T16:17:29.496Z,94.58
2018-11-10T16:20:33.362Z,94.38
2018-11-10T16:23:37.242Z,94.74
2018-11-10T16:26:41.098Z,93.96
2018-11-10T16:29:45.167Z,94.47
2018-11-10T16:32:49.632Z,94.31
2018-11-10T16:35:53.687Z,94.25
2018-11-10T16:38:57.769Z,94.91
2018-11-10T16:42:01.632Z,94.73
2018-11-10T16:45:06.189Z,94.51
2018-11-10T16:48:10.081Z,94.83
2018-11-10T16:51:14.037Z,94.59
2018-11-10T16:54:17.901Z,94.20
2018-11-10T16:57:21.823Z,94.16
2018-11-10T17:00:25.881Z,94.36
2018-11-10T17:03:30.122Z,94.23
2018-11-10T17:06:34.026Z,94.43
2018-11-10T17:09:37.877Z,94.20
2018-11-10T17:12:42.524Z,94.75
2018-11-10T17:15:46.389Z,94.44
2018-11-10T17:18:50.268Z,95.27
2018-11-10T17:21:54.427Z,95.11
2018-11-10T17:24:58.353Z,94.87
2018-11-10T17:28:02.227Z,94.36
2018-11-10T17:31:06.632Z,94.23
2018-11-10T17:34:10.489Z,94.93
2018-11-10T17:37:14.365Z,94.60
2018-11-10T17:40:18.480Z,94.50
2018-11-10T17:43:22.593Z,94.72
2018-11-10T17:46:26.455Z,94.85
2018-11-10T17:49:30.418Z,94.95
2018-11-10T17:52:34.396Z,94.69
2018-11-10T17:55:38.393Z,95.12
2018-11-10T17:58:42.726Z,94.41
2018-11-10T18:01:47.266Z,94.29
2018-11-10T18:04:51.217Z,94.21
2018-11-10T18:07:55.091Z,95.12
2018-11-10T18:10:58.944Z,94.59
2018-11-10T18:14:02.820Z,95.18
2018-11-10T18:17:07.000Z,94.58
2018-11-10T18:20:12.295Z,94.67
2018-11-10T18:23:16.139Z,95.19
2018-11-10T18:26:20.089Z,94.64
2018-11-10T18:29:24.520Z,94.54
2018-11-10T18:32:28.431Z,94.30
2018-11-10T18:35:32.776Z,95.24
2018-11-10T18:38:36.643Z,94.72
2018-11-10T18:41:40.792Z,94.93
2018-11-10T18:44:44.661Z,94.44
2018-11-10T18:47:48.508Z,94.74
2018-11-10T18:50:52.368Z,94.73
2018-11-10T18:53:56.237Z,94.82
2018-11-10T18:57:00.465Z,95.21
2018-11-10T19:00:04.629Z,95.20
2018-11-10T19:03:08.709Z,94.69
2018-11-10T19:06:12.958Z,94.69
2018-11-10T19:09:16.966Z,94.92
2018-11-10T19:12:21.012Z,94.61
2018-11-10T19:15:24.876Z,94.92
2018-11-10T19:18:29.273Z,94.86
2018-11-10T19:21:33.169Z,95.30
2018-11-10T19:24:37.021Z,95.11
2018-11-10T19:27:41.216Z,95.07
2018-11-10T19:30:45.068Z,95.66
2018-11-10T19:33:49.312Z,95.74
2018-11-10T19:36:53.343Z,95.42
2018-11-10T19:39:57.728Z,96.09
2018-11-10T19:43:01.609Z,96.39
2018-11-10T19:46:06.105Z,95.57
2018-11-10T19:49:10.550Z,96.06
2018-11-10T19:52:14.811Z,96.00
2018-11-10T19:55:18.668Z,95.37
2018-11-10T19:58:22.521Z,95.64
2018-11-10T20:01:27.425Z,96.08
2018-11-10T20:04:31.315Z,95.75
2018-11-10T20:07:35.562Z,95.68
2018-11-10T20:10:39.573Z,95.64
2018-11-10T20:13:43.470Z,96.22
2018-11-10T20:16:47.519Z,96.08
2018-11-10T20:19:51.382Z,96.11
2018-11-10T20:22:55.453Z,96.26
2018-11-10T20:25:59.321Z,96.07
2018-11-10T20:29:03.522Z,96.93
2018-11-10T20:32:07.373Z,97.07
2018-11-10T20:35:12.917Z,96.24
2018-11-10T20:38:17.003Z,95.89
2018-11-10T20:41:20.873Z,95.71
2018-11-10T20:44:24.921Z,96.45
2018-11-10T20:47:29.129Z,95.82
2018-11-10T20:50:33.203Z,95.35
2018-11-10T20:53:37.624Z,96.59
2018-11-10T20:56:41.813Z,96.11
2018-11-10T20:59:45.999Z,95.38
2018-11-10T21:02:49.856Z,96.43
2018-11-10T21:05:53.801Z,95.90
2018-11-10T21:08:57.781Z,96.35
2018-11-10T21:12:01.646Z,95.75
2018-11-10T21:15:06.328Z,96.87
2018-11-10T21:18:10.202Z,96.05
2018-11-10T21:21:14.405Z,96.42
2018-11-10T21:24:18.262Z,96.12
2018-11-10T21:27:22.122Z,95.67
2018-11-10T21:30:25.968Z,96.64
2018-11-10T21:33:29.916Z,96.31
2018-11-10T21:36:33.900Z,95.83
2018-11-10T21:39:37.763Z,96.89
2018-11-10T21:42:42.079Z,95.90
2018-11-10T21:45:45.930Z,96.03
2018-11-10T21:48:49.798Z,96.69
2018-11-10T21:51:54.317Z,96.22
2018-11-10T21:54:58.522Z,96.48
2018-11-10T21:58:02.370Z,96.89
2018-11-10T22:01:06.464Z,96.66
2018-11-10T22:04:10.317Z,96.17
2018-11-10T22:07:14.174Z,95.68
2018-11-10T22:10:18.726Z,96.66
2018-11-10T22:13:22.586Z,97.34
2018-11-10T22:16:26.645Z,96.24
2018-11-10T22:19:30.502Z,95.88
2018-11-10T22:22:34.366Z,96.80
2018-11-10T22:25:38.748Z,96.43
2018-11-10T22:28:42.605Z,96.18
2018-11-10T22:31:46.450Z,96.65
2018-11-10T22:34:50.648Z,96.04
2018-11-10T22:37:54.506Z,96.65
2018-11-10T22:40:58.367Z,97.06
2018-11-10T22:44:02.228Z,96.19
2018-11-10T22:47:06.630Z,96.98
2018-11-10T22:50:13.785Z,97.14
2018-11-10T22:53:17.842Z,96.00
2018-11-10T22:56:21.691Z,96.19
2018-11-10T22:59:25.880Z,96.21
2018-11-10T23:02:30.315Z,96.90
2018-11-10T23:05:34.373Z,95.92
2018-11-10T23:08:38.794Z,96.38
2018-11-10T23:11:42.866Z,96.61
2018-11-10T23:14:46.720Z,96.81
2018-11-10T23:17:50.927Z,96.65
2018-11-10T23:20:54.784Z,96.19
2018-11-10T23:23:59.029Z,95.99
2018-11-10T23:27:03.373Z,96.03
2018-11-10T23:30:14.904Z,96.44
2018-11-10T23:33:18.953Z,96.52
2018-11-10T23:36:22.807Z,96.02
2018-11-10T23:39:26.987Z,95.93
2018-11-10T23:42:30.842Z,95.95
2018-11-10T23:45:35.263Z,95.79
2018-11-10T23:48:39.881Z,95.98
2018-11-10T23:51:43.737Z,96.34
2018-11-10T23:54:47.594Z,96.29
2018-11-10T23:57:51.468Z,96.17
